Qu'Appelle, Canada
Current Conditions -  °F | °C
As of 10:29 AM on Saturday 20 Dec 2014 (Local Time) from CYQR Reporting Station
Light Snow Light Snow  
Wind Chill: 10°   Ceiling: 3000
Heat Index: 23°   Visibility: 2.5mi
Dew Point: 21°   Wind: 16mph
Humidity: 93%   Direction: 120°ESE
Pressure: 29.75"   Gusts: NA
Location:  50.53°N, 103.87°W
Report Text: CYQR 201629Z 12014KT 2 1/2SM -SNPL BR SCT007 OVC030 M05/M06 A2975 RMK SF4SC4 SLP113
Loading
Personal Weather Stations






























Interactive Weather Map New forecast layout! Learn more

10-Day Weather Forecast

Advertisements
Track Severe Weather on mobile